NSZ3194 EKCH-ESSA
Flight info
| Callsign | NSZ3194 |
|---|---|
| Flight time | 0h 58m |
| Altitude | 37000 |
| Route | KEMAX DCT RASMU DCT DETSO N873 ARS T317 ELTOK |
| Aircraft | B738/M-SDE2E3FGHIRWXY/LB1 |
Departure
| Time | 2026-04-25 15:22 |
|---|---|
| Airport | Copenhagen Kastrup Airport (EKCH) |
Arrival
| Time | 2026-04-25 16:21 |
|---|---|
| Airport | Stockholm-Arlanda Airport (ESSA) |
| Time | Latitude | Longitude | Altitude | Speed | Heading |
|---|---|---|---|---|---|
| 2026-04-25 14:51 | 55.62718 | 12.64091 | 23 ft | 0 kts | 32° |
| 2026-04-25 15:13 | 55.62718 | 12.64090 | 23 ft | 0 kts | 32° |
| 2026-04-25 15:13 | 55.62709 | 12.64080 | 28 ft | 2 kts | 34° |
| 2026-04-25 15:13 | 55.62695 | 12.64063 | 25 ft | 2 kts | 38° |
| 2026-04-25 15:14 | 55.62683 | 12.64043 | 24 ft | 2 kts | 49° |
| 2026-04-25 15:14 | 55.62675 | 12.64018 | 25 ft | 2 kts | 87° |
| 2026-04-25 15:14 | 55.62678 | 12.63994 | 24 ft | 1 kts | 121° |
| 2026-04-25 15:14 | 55.62679 | 12.63989 | 24 ft | 0 kts | 123° |
| 2026-04-25 15:17 | 55.62676 | 12.63998 | 26 ft | 4 kts | 123° |
| 2026-04-25 15:17 | 55.62655 | 12.64055 | 23 ft | 6 kts | 123° |
| 2026-04-25 15:18 | 55.62623 | 12.64141 | 26 ft | 12 kts | 124° |
| 2026-04-25 15:18 | 55.62508 | 12.64449 | 23 ft | 14 kts | 123° |
| 2026-04-25 15:18 | 55.62426 | 12.64465 | 23 ft | 13 kts | 196° |
| 2026-04-25 15:19 | 55.62382 | 12.64444 | 23 ft | 0 kts | 196° |
| 2026-04-25 15:19 | 55.62361 | 12.64433 | 23 ft | 12 kts | 196° |
| 2026-04-25 15:19 | 55.62219 | 12.64359 | 20 ft | 17 kts | 203° |
| 2026-04-25 15:19 | 55.62114 | 12.64271 | 25 ft | 16 kts | 205° |
| 2026-04-25 15:20 | 55.62013 | 12.64186 | 26 ft | 16 kts | 206° |
| 2026-04-25 15:20 | 55.61916 | 12.64105 | 25 ft | 15 kts | 206° |
| 2026-04-25 15:20 | 55.61821 | 12.64072 | 23 ft | 14 kts | 175° |
| 2026-04-25 15:20 | 55.61742 | 12.64082 | 25 ft | 11 kts | 176° |
| 2026-04-25 15:21 | 55.61671 | 12.64091 | 28 ft | 10 kts | 176° |
| 2026-04-25 15:21 | 55.61608 | 12.64043 | 30 ft | 12 kts | 221° |
| 2026-04-25 15:21 | 55.61505 | 12.63885 | 26 ft | 37 kts | 221° |
| 2026-04-25 15:21 | 55.61078 | 12.63217 | 28 ft | 124 kts | 220° |
| 2026-04-25 15:22 | 55.60249 | 12.61986 | 326 ft | 172 kts | 227° |
| 2026-04-25 15:22 | 55.59337 | 12.60626 | 1561 ft | 166 kts | 232° |
| 2026-04-25 15:22 | 55.58475 | 12.59283 | 2627 ft | 170 kts | 233° |
| 2026-04-25 15:22 | 55.57526 | 12.57786 | 2962 ft | 196 kts | 232° |
| 2026-04-25 15:23 | 55.56426 | 12.56161 | 3141 ft | 224 kts | 220° |
| 2026-04-25 15:23 | 55.54877 | 12.55062 | 3373 ft | 252 kts | 207° |
| 2026-04-25 15:23 | 55.53154 | 12.54045 | 3749 ft | 268 kts | 206° |
| 2026-04-25 15:23 | 55.51382 | 12.52990 | 4536 ft | 270 kts | 206° |
| 2026-04-25 15:24 | 55.49589 | 12.51903 | 5329 ft | 273 kts | 207° |
| 2026-04-25 15:24 | 55.47785 | 12.50798 | 6122 ft | 276 kts | 207° |
| 2026-04-25 15:24 | 55.45922 | 12.49823 | 6839 ft | 288 kts | 194° |
| 2026-04-25 15:24 | 55.44566 | 12.49895 | 7340 ft | 302 kts | 174° |
| 2026-04-25 15:25 | 55.42082 | 12.52448 | 8327 ft | 325 kts | 131° |
| 2026-04-25 15:25 | 55.41040 | 12.55929 | 9063 ft | 330 kts | 105° |
| 2026-04-25 15:25 | 55.40419 | 12.59864 | 9770 ft | 337 kts | 101° |
| 2026-04-25 15:25 | 55.40245 | 12.63979 | 10222 ft | 344 kts | 74° |
| 2026-04-25 15:26 | 55.41117 | 12.67887 | 10420 ft | 347 kts | 46° |
| 2026-04-25 15:26 | 55.42784 | 12.70954 | 10611 ft | 351 kts | 27° |
| 2026-04-25 15:26 | 55.44951 | 12.72903 | 10819 ft | 350 kts | 7° |
| 2026-04-25 15:26 | 55.45869 | 12.73311 | 10992 ft | 351 kts | 4° |
| 2026-04-25 15:27 | 55.48280 | 12.74213 | 11625 ft | 356 kts | 3° |
| 2026-04-25 15:27 | 55.50720 | 12.75109 | 12345 ft | 360 kts | 2° |
| 2026-04-25 15:27 | 55.55661 | 12.76984 | 13808 ft | 369 kts | 2° |
| 2026-04-25 15:28 | 55.58179 | 12.77971 | 14544 ft | 371 kts | 2° |
| 2026-04-25 15:28 | 55.60707 | 12.78970 | 15350 ft | 372 kts | 2° |
| 2026-04-25 15:28 | 55.63237 | 12.80071 | 16143 ft | 380 kts | 6° |
| 2026-04-25 15:28 | 55.65727 | 12.81876 | 16897 ft | 395 kts | 15° |
| 2026-04-25 15:29 | 55.68123 | 12.84473 | 17627 ft | 412 kts | 24° |
| 2026-04-25 15:29 | 55.70435 | 12.87541 | 18290 ft | 417 kts | 25° |
| 2026-04-25 15:29 | 55.72749 | 12.90713 | 18842 ft | 423 kts | 26° |
| 2026-04-25 15:29 | 55.75084 | 12.93937 | 19387 ft | 427 kts | 26° |
| 2026-04-25 15:30 | 55.77438 | 12.97179 | 19946 ft | 430 kts | 25° |
| 2026-04-25 15:30 | 55.79817 | 13.00435 | 20493 ft | 433 kts | 25° |
| 2026-04-25 15:30 | 55.82184 | 13.03661 | 21018 ft | 437 kts | 25° |
| 2026-04-25 15:30 | 55.84609 | 13.06958 | 21538 ft | 441 kts | 25° |
| 2026-04-25 15:31 | 55.87058 | 13.10286 | 22039 ft | 445 kts | 25° |
| 2026-04-25 15:31 | 55.89524 | 13.13640 | 22554 ft | 448 kts | 25° |
| 2026-04-25 15:31 | 55.92011 | 13.17029 | 23049 ft | 452 kts | 25° |
| 2026-04-25 15:31 | 55.94518 | 13.20451 | 23487 ft | 456 kts | 25° |
| 2026-04-25 15:32 | 55.97046 | 13.23911 | 23889 ft | 459 kts | 26° |
| 2026-04-25 15:32 | 55.99578 | 13.27385 | 24342 ft | 460 kts | 26° |
| 2026-04-25 15:32 | 56.02127 | 13.30888 | 24750 ft | 462 kts | 26° |
| 2026-04-25 15:33 | 56.07259 | 13.37951 | 25508 ft | 467 kts | 27° |
| 2026-04-25 15:33 | 56.09839 | 13.41507 | 25874 ft | 469 kts | 26° |
| 2026-04-25 15:33 | 56.12521 | 13.44713 | 26210 ft | 460 kts | 19° |
| 2026-04-25 15:33 | 56.15388 | 13.47133 | 26537 ft | 449 kts | 9° |
| 2026-04-25 15:34 | 56.18342 | 13.48826 | 26881 ft | 446 kts | 7° |
| 2026-04-25 15:34 | 56.21321 | 13.50439 | 27195 ft | 448 kts | 7° |
| 2026-04-25 15:34 | 56.24314 | 13.52058 | 27523 ft | 450 kts | 7° |
| 2026-04-25 15:34 | 56.25292 | 13.52592 | 27649 ft | 450 kts | 7° |
| 2026-04-25 15:35 | 56.33251 | 13.57037 | 28897 ft | 446 kts | 8° |
| 2026-04-25 15:35 | 56.36171 | 13.58695 | 29325 ft | 446 kts | 8° |
| 2026-04-25 15:35 | 56.39128 | 13.60380 | 29740 ft | 446 kts | 8° |
| 2026-04-25 15:36 | 56.45045 | 13.63761 | 30410 ft | 446 kts | 9° |
| 2026-04-25 15:36 | 56.48004 | 13.65455 | 30722 ft | 446 kts | 9° |
| 2026-04-25 15:36 | 56.50965 | 13.67153 | 31036 ft | 446 kts | 9° |
| 2026-04-25 15:37 | 56.53927 | 13.68854 | 31353 ft | 446 kts | 9° |
| 2026-04-25 15:37 | 56.56886 | 13.70556 | 31673 ft | 446 kts | 9° |
| 2026-04-25 15:37 | 56.59847 | 13.72262 | 31982 ft | 447 kts | 10° |
| 2026-04-25 15:37 | 56.62810 | 13.73973 | 32307 ft | 446 kts | 10° |
| 2026-04-25 15:38 | 56.65771 | 13.75685 | 32625 ft | 446 kts | 10° |
| 2026-04-25 15:38 | 56.68733 | 13.77400 | 32930 ft | 447 kts | 10° |
| 2026-04-25 15:38 | 56.71700 | 13.79120 | 33240 ft | 447 kts | 11° |
| 2026-04-25 15:38 | 56.74658 | 13.80828 | 33545 ft | 446 kts | 9° |
| 2026-04-25 15:39 | 56.77658 | 13.82105 | 33827 ft | 439 kts | 2° |
| 2026-04-25 15:39 | 56.80646 | 13.82842 | 34086 ft | 437 kts | 1° |
| 2026-04-25 15:39 | 56.83238 | 13.83418 | 34282 ft | 438 kts | 1° |
| 2026-04-25 15:40 | 56.86263 | 13.84068 | 34491 ft | 439 kts | 1° |
| 2026-04-25 15:40 | 56.87293 | 13.84290 | 34565 ft | 439 kts | 1° |
| 2026-04-25 15:40 | 56.92345 | 13.85401 | 34959 ft | 440 kts | 1° |
| 2026-04-25 15:40 | 56.95382 | 13.86090 | 35184 ft | 440 kts | 1° |
| 2026-04-25 15:41 | 56.98421 | 13.86791 | 35410 ft | 441 kts | 1° |
| 2026-04-25 15:41 | 57.01469 | 13.87502 | 35643 ft | 441 kts | 1° |
| 2026-04-25 15:41 | 57.04513 | 13.88217 | 35877 ft | 441 kts | 2° |
| 2026-04-25 15:41 | 57.07562 | 13.88937 | 36133 ft | 441 kts | 2° |
| 2026-04-25 15:42 | 57.10604 | 13.89657 | 36369 ft | 441 kts | 2° |
| 2026-04-25 15:42 | 57.13652 | 13.90378 | 36581 ft | 442 kts | 2° |
| 2026-04-25 15:42 | 57.16697 | 13.91099 | 36744 ft | 443 kts | 2° |
| 2026-04-25 15:42 | 57.19770 | 13.91827 | 36736 ft | 445 kts | 2° |
| 2026-04-25 15:43 | 57.24864 | 13.93039 | 36746 ft | 443 kts | 2° |
| 2026-04-25 15:43 | 57.30959 | 13.94495 | 36748 ft | 441 kts | 2° |
| 2026-04-25 15:44 | 57.37042 | 13.95949 | 36752 ft | 441 kts | 2° |
| 2026-04-25 15:44 | 57.43135 | 13.97410 | 36750 ft | 441 kts | 2° |
| 2026-04-25 15:45 | 57.49160 | 13.98860 | 36743 ft | 442 kts | 2° |
| 2026-04-25 15:45 | 57.54229 | 14.00085 | 36729 ft | 442 kts | 2° |
| 2026-04-25 15:46 | 57.61319 | 14.01803 | 36729 ft | 442 kts | 2° |
| 2026-04-25 15:46 | 57.67411 | 14.03286 | 36725 ft | 441 kts | 2° |
| 2026-04-25 15:47 | 57.73507 | 14.04773 | 36725 ft | 441 kts | 2° |
| 2026-04-25 15:47 | 57.79601 | 14.06266 | 36724 ft | 441 kts | 2° |
| 2026-04-25 15:48 | 57.85698 | 14.07764 | 36723 ft | 441 kts | 2° |
| 2026-04-25 15:48 | 57.91789 | 14.09266 | 36725 ft | 441 kts | 2° |
| 2026-04-25 15:49 | 57.97841 | 14.10763 | 36719 ft | 441 kts | 2° |
| 2026-04-25 15:49 | 58.03820 | 14.13772 | 36737 ft | 452 kts | 18° |
| 2026-04-25 15:50 | 58.09278 | 14.19908 | 36718 ft | 460 kts | 28° |
| 2026-04-25 15:50 | 58.14531 | 14.26844 | 36719 ft | 460 kts | 29° |
| 2026-04-25 15:51 | 58.18899 | 14.32631 | 36723 ft | 460 kts | 29° |
| 2026-04-25 15:51 | 58.25059 | 14.40705 | 36718 ft | 461 kts | 28° |
| 2026-04-25 15:52 | 58.30349 | 14.47614 | 36719 ft | 461 kts | 28° |
| 2026-04-25 15:52 | 58.35639 | 14.54540 | 36716 ft | 462 kts | 29° |
| 2026-04-25 15:53 | 58.40933 | 14.61501 | 36719 ft | 462 kts | 29° |
| 2026-04-25 15:53 | 58.46224 | 14.68486 | 36724 ft | 462 kts | 29° |
| 2026-04-25 15:54 | 58.51516 | 14.75500 | 36719 ft | 463 kts | 29° |
| 2026-04-25 15:54 | 58.56803 | 14.82533 | 36719 ft | 463 kts | 29° |
| 2026-04-25 15:55 | 58.62062 | 14.89555 | 36716 ft | 463 kts | 29° |
| 2026-04-25 15:55 | 58.67344 | 14.96634 | 36714 ft | 463 kts | 30° |
| 2026-04-25 15:56 | 58.72634 | 15.03750 | 36694 ft | 464 kts | 30° |
| 2026-04-25 15:56 | 58.77917 | 15.10884 | 36685 ft | 464 kts | 30° |
| 2026-04-25 15:57 | 58.83200 | 15.18044 | 36688 ft | 463 kts | 30° |
| 2026-04-25 15:57 | 58.88466 | 15.25210 | 36682 ft | 463 kts | 30° |
| 2026-04-25 15:58 | 58.93735 | 15.32407 | 36688 ft | 463 kts | 30° |
| 2026-04-25 15:58 | 58.99000 | 15.39625 | 36695 ft | 464 kts | 30° |
| 2026-04-25 15:59 | 59.01636 | 15.43249 | 36547 ft | 466 kts | 30° |
| 2026-04-25 15:59 | 59.04293 | 15.46907 | 35991 ft | 467 kts | 30° |
| 2026-04-25 15:59 | 59.06904 | 15.50514 | 35327 ft | 466 kts | 30° |
| 2026-04-25 15:59 | 59.09545 | 15.54168 | 34636 ft | 467 kts | 30° |
| 2026-04-25 16:00 | 59.12196 | 15.57841 | 33882 ft | 468 kts | 30° |
| 2026-04-25 16:00 | 59.13092 | 15.59083 | 33622 ft | 469 kts | 30° |
| 2026-04-25 16:00 | 59.17512 | 15.65226 | 32198 ft | 470 kts | 31° |
| 2026-04-25 16:00 | 59.20085 | 15.69222 | 31349 ft | 475 kts | 37° |
| 2026-04-25 16:01 | 59.22278 | 15.73767 | 30496 ft | 481 kts | 46° |
| 2026-04-25 16:01 | 59.24363 | 15.78898 | 29578 ft | 483 kts | 47° |
| 2026-04-25 16:01 | 59.26421 | 15.84119 | 28467 ft | 483 kts | 48° |
| 2026-04-25 16:01 | 59.28462 | 15.89308 | 27444 ft | 479 kts | 48° |
| 2026-04-25 16:02 | 59.30494 | 15.94429 | 26414 ft | 472 kts | 47° |
| 2026-04-25 16:02 | 59.32489 | 15.99412 | 25754 ft | 459 kts | 47° |
| 2026-04-25 16:02 | 59.34443 | 16.04268 | 25043 ft | 449 kts | 47° |
| 2026-04-25 16:02 | 59.36358 | 16.09016 | 24362 ft | 439 kts | 47° |
| 2026-04-25 16:03 | 59.38232 | 16.13668 | 23681 ft | 431 kts | 47° |
| 2026-04-25 16:03 | 59.40045 | 16.18186 | 22970 ft | 423 kts | 47° |
| 2026-04-25 16:03 | 59.41843 | 16.22679 | 22314 ft | 413 kts | 47° |
| 2026-04-25 16:03 | 59.43580 | 16.27038 | 21831 ft | 401 kts | 47° |
| 2026-04-25 16:04 | 59.45309 | 16.31374 | 21216 ft | 407 kts | 47° |
| 2026-04-25 16:04 | 59.47095 | 16.35843 | 20562 ft | 422 kts | 47° |
| 2026-04-25 16:04 | 59.48893 | 16.40366 | 19884 ft | 415 kts | 47° |
| 2026-04-25 16:04 | 59.50644 | 16.44795 | 19204 ft | 405 kts | 47° |
| 2026-04-25 16:05 | 59.52349 | 16.49115 | 18552 ft | 396 kts | 47° |
| 2026-04-25 16:05 | 59.54025 | 16.53358 | 17923 ft | 387 kts | 47° |
| 2026-04-25 16:05 | 59.57278 | 16.61615 | 16624 ft | 374 kts | 47° |
| 2026-04-25 16:06 | 59.58981 | 16.65428 | 15994 ft | 370 kts | 39° |
| 2026-04-25 16:06 | 59.60989 | 16.68589 | 15375 ft | 378 kts | 32° |
| 2026-04-25 16:06 | 59.63136 | 16.71583 | 14455 ft | 377 kts | 31° |
| 2026-04-25 16:06 | 59.65261 | 16.74521 | 13798 ft | 368 kts | 31° |
| 2026-04-25 16:07 | 59.67322 | 16.77399 | 13174 ft | 358 kts | 31° |
| 2026-04-25 16:07 | 59.68003 | 16.78357 | 12989 ft | 354 kts | 31° |
| 2026-04-25 16:07 | 59.71263 | 16.82978 | 12104 ft | 342 kts | 31° |
| 2026-04-25 16:07 | 59.73177 | 16.85708 | 11541 ft | 337 kts | 31° |
| 2026-04-25 16:08 | 59.75102 | 16.88458 | 10943 ft | 346 kts | 32° |
| 2026-04-25 16:08 | 59.76778 | 16.91906 | 10674 ft | 347 kts | 53° |
| 2026-04-25 16:08 | 59.77688 | 16.96217 | 10501 ft | 338 kts | 73° |
| 2026-04-25 16:08 | 59.77773 | 17.00814 | 10343 ft | 330 kts | 94° |
| 2026-04-25 16:09 | 59.77094 | 17.05096 | 10183 ft | 322 kts | 113° |
| 2026-04-25 16:09 | 59.75859 | 17.08698 | 10046 ft | 313 kts | 132° |
| 2026-04-25 16:09 | 59.74239 | 17.11472 | 9933 ft | 301 kts | 141° |
| 2026-04-25 16:09 | 59.72577 | 17.13912 | 9803 ft | 295 kts | 142° |
| 2026-04-25 16:10 | 59.70912 | 17.16319 | 9723 ft | 296 kts | 142° |
| 2026-04-25 16:10 | 59.69238 | 17.18750 | 9353 ft | 301 kts | 142° |
| 2026-04-25 16:10 | 59.67579 | 17.21187 | 9022 ft | 300 kts | 141° |
| 2026-04-25 16:10 | 59.65919 | 17.23639 | 8695 ft | 296 kts | 141° |
| 2026-04-25 16:11 | 59.64284 | 17.26059 | 8377 ft | 292 kts | 141° |
| 2026-04-25 16:11 | 59.63109 | 17.27798 | 8164 ft | 290 kts | 141° |
| 2026-04-25 16:11 | 59.61589 | 17.30044 | 7883 ft | 289 kts | 141° |
| 2026-04-25 16:11 | 59.59974 | 17.32429 | 7571 ft | 289 kts | 141° |
| 2026-04-25 16:12 | 59.58362 | 17.34807 | 7246 ft | 288 kts | 141° |
| 2026-04-25 16:12 | 59.56766 | 17.37156 | 6928 ft | 285 kts | 141° |
| 2026-04-25 16:12 | 59.55182 | 17.39484 | 6618 ft | 283 kts | 141° |
| 2026-04-25 16:12 | 59.54654 | 17.40260 | 6515 ft | 282 kts | 141° |
| 2026-04-25 16:13 | 59.52231 | 17.44451 | 5994 ft | 276 kts | 130° |
| 2026-04-25 16:13 | 59.50922 | 17.47215 | 5679 ft | 275 kts | 129° |
| 2026-04-25 16:13 | 59.49614 | 17.49950 | 5374 ft | 274 kts | 130° |
| 2026-04-25 16:13 | 59.48305 | 17.52640 | 5066 ft | 271 kts | 130° |
| 2026-04-25 16:14 | 59.47087 | 17.55370 | 4985 ft | 257 kts | 116° |
| 2026-04-25 16:14 | 59.46515 | 17.58572 | 4854 ft | 242 kts | 90° |
| 2026-04-25 16:14 | 59.46518 | 17.61739 | 4635 ft | 230 kts | 82° |
| 2026-04-25 16:14 | 59.46571 | 17.64831 | 4404 ft | 222 kts | 83° |
| 2026-04-25 16:15 | 59.46619 | 17.67799 | 4189 ft | 213 kts | 83° |
| 2026-04-25 16:15 | 59.46663 | 17.70643 | 4035 ft | 205 kts | 83° |
| 2026-04-25 16:15 | 59.46707 | 17.73400 | 4049 ft | 202 kts | 82° |
| 2026-04-25 16:15 | 59.46758 | 17.76362 | 3887 ft | 224 kts | 83° |
| 2026-04-25 16:16 | 59.46802 | 17.79384 | 3668 ft | 215 kts | 84° |
| 2026-04-25 16:16 | 59.46894 | 17.82198 | 3495 ft | 196 kts | 69° |
| 2026-04-25 16:16 | 59.47628 | 17.84120 | 3442 ft | 169 kts | 24° |
| 2026-04-25 16:16 | 59.48695 | 17.85046 | 3241 ft | 168 kts | 19° |
| 2026-04-25 16:17 | 59.49791 | 17.85814 | 3017 ft | 166 kts | 14° |
| 2026-04-25 16:17 | 59.50893 | 17.86487 | 2792 ft | 166 kts | 14° |
| 2026-04-25 16:17 | 59.52013 | 17.87037 | 2560 ft | 166 kts | 10° |
| 2026-04-25 16:17 | 59.53131 | 17.87478 | 2323 ft | 162 kts | 9° |
| 2026-04-25 16:18 | 59.54219 | 17.87880 | 2103 ft | 154 kts | 8° |
| 2026-04-25 16:18 | 59.54557 | 17.88003 | 2027 ft | 152 kts | 8° |
| 2026-04-25 16:18 | 59.56356 | 17.88652 | 1681 ft | 160 kts | 8° |
| 2026-04-25 16:18 | 59.57429 | 17.89043 | 1445 ft | 153 kts | 8° |
| 2026-04-25 16:19 | 59.58440 | 17.89406 | 1201 ft | 142 kts | 8° |
| 2026-04-25 16:19 | 59.59323 | 17.89757 | 1069 ft | 120 kts | 9° |
| 2026-04-25 16:19 | 59.60160 | 17.90070 | 931 ft | 126 kts | 8° |
| 2026-04-25 16:20 | 59.61326 | 17.90476 | 712 ft | 132 kts | 6° |
| 2026-04-25 16:20 | 59.62533 | 17.90896 | 431 ft | 130 kts | 7° |
| 2026-04-25 16:20 | 59.64482 | 17.91589 | 108 ft | 99 kts | 10° |
| 2026-04-25 16:21 | 59.64991 | 17.91780 | 104 ft | 46 kts | 10° |
| 2026-04-25 16:21 | 59.65200 | 17.91940 | 104 ft | 22 kts | 34° |
| 2026-04-25 16:21 | 59.65296 | 17.92099 | 103 ft | 10 kts | 45° |
| 2026-04-25 16:21 | 59.65326 | 17.92188 | 102 ft | 8 kts | 82° |
| 2026-04-25 16:22 | 59.65312 | 17.92289 | 105 ft | 8 kts | 109° |
| 2026-04-25 16:22 | 59.65295 | 17.92386 | 108 ft | 7 kts | 109° |
| 2026-04-25 16:22 | 59.65279 | 17.92478 | 111 ft | 7 kts | 109° |
| 2026-04-25 16:22 | 59.65262 | 17.92570 | 111 ft | 7 kts | 109° |
| 2026-04-25 16:23 | 59.65246 | 17.92661 | 111 ft | 7 kts | 109° |
| 2026-04-25 16:23 | 59.65222 | 17.92726 | 111 ft | 5 kts | 167° |
| 2026-04-25 16:23 | 59.65186 | 17.92713 | 111 ft | 5 kts | 191° |
| 2026-04-25 16:23 | 59.65156 | 17.92701 | 111 ft | 4 kts | 190° |
| 2026-04-25 16:24 | 59.65145 | 17.92697 | 111 ft | 0 kts | 190° |